createdAt,value
2018-04-29T00:02:17.682Z,10.60
2018-04-29T00:04:46.629Z,10.58
2018-04-29T00:07:15.047Z,10.54
2018-04-29T00:09:43.553Z,10.52
2018-04-29T00:12:12.958Z,10.50
2018-04-29T00:14:41.693Z,10.52
2018-04-29T00:17:17.530Z,10.51
2018-04-29T00:19:46.295Z,10.52
2018-04-29T00:22:15.568Z,10.55
2018-04-29T00:27:18.780Z,10.55
2018-04-29T00:29:47.418Z,10.58
2018-04-29T00:32:16.729Z,10.64
2018-04-29T00:34:45.501Z,10.73
2018-04-29T00:37:13.999Z,10.80
2018-04-29T00:39:42.535Z,10.88
2018-04-29T00:42:12.206Z,10.96
2018-04-29T00:44:40.588Z,11.04
2018-04-29T00:47:09.370Z,11.12
2018-04-29T00:49:37.783Z,11.19
2018-04-29T00:52:07.022Z,11.25
2018-04-29T00:54:36.474Z,11.29
2018-04-29T00:57:05.183Z,11.32
2018-04-29T00:59:33.560Z,11.33
2018-04-29T01:02:02.048Z,11.36
2018-04-29T01:04:31.172Z,11.39
2018-04-29T01:07:00.157Z,11.42
2018-04-29T01:09:28.828Z,11.46
2018-04-29T01:11:58.511Z,11.50
2018-04-29T01:14:27.165Z,11.53
2018-04-29T01:16:55.973Z,11.57
2018-04-29T01:19:24.867Z,11.62
2018-04-29T01:21:53.966Z,11.68
2018-04-29T01:24:22.436Z,11.74
2018-04-29T01:26:50.811Z,11.78
2018-04-29T01:29:19.240Z,11.83
2018-04-29T01:31:47.917Z,11.85
2018-04-29T01:34:17.248Z,11.88
2018-04-29T01:36:46.824Z,11.92
2018-04-29T01:39:15.590Z,11.97
2018-04-29T01:41:43.947Z,12.02
2018-04-29T01:44:12.315Z,12.07
2018-04-29T01:46:41.860Z,12.10
2018-04-29T01:49:10.233Z,12.12
2018-04-29T01:51:38.911Z,12.14
2018-04-29T01:54:07.730Z,12.18
2018-04-29T01:56:37.228Z,12.24
2018-04-29T01:59:05.948Z,12.28
2018-04-29T02:01:34.554Z,12.32
2018-04-29T02:04:04.613Z,12.35
2018-04-29T02:06:33.043Z,12.38
2018-04-29T02:09:01.400Z,12.38
2018-04-29T02:11:30.280Z,12.40
2018-04-29T02:13:58.704Z,12.42
2018-04-29T02:16:27.671Z,12.47
2018-04-29T02:18:56.478Z,12.49
2018-04-29T02:21:25.019Z,12.51
2018-04-29T02:23:53.408Z,12.57
2018-04-29T02:26:23.151Z,12.62
2018-04-29T02:28:51.675Z,12.69
2018-04-29T02:31:20.132Z,12.74
2018-04-29T02:33:48.626Z,12.80
2018-04-29T02:36:17.081Z,12.82
2018-04-29T02:38:45.448Z,12.84
2018-04-29T02:41:13.939Z,12.98
2018-04-29T02:43:42.823Z,13.17
2018-04-29T02:46:12.004Z,13.56
2018-04-29T02:48:40.366Z,13.89
2018-04-29T02:51:08.800Z,14.14
2018-04-29T02:53:37.581Z,14.33
2018-04-29T02:56:07.341Z,14.50
2018-04-29T02:58:36.085Z,14.56
2018-04-29T03:01:04.676Z,14.54
2018-04-29T03:03:33.190Z,14.58
2018-04-29T03:06:02.687Z,14.51
2018-04-29T03:08:31.969Z,14.48
2018-04-29T03:11:00.913Z,14.49
2018-04-29T03:13:29.371Z,14.65
2018-04-29T03:15:58.120Z,14.85
2018-04-29T03:18:27.064Z,15.03
2018-04-29T03:20:55.727Z,15.16
2018-04-29T03:23:24.392Z,15.27
2018-04-29T03:25:53.243Z,15.38
2018-04-29T03:28:22.781Z,15.47
2018-04-29T03:30:51.876Z,15.56
2018-04-29T03:33:20.288Z,15.65
2018-04-29T03:35:48.983Z,15.70
2018-04-29T03:38:17.335Z,15.76
2018-04-29T03:40:47.252Z,15.79
2018-04-29T03:43:15.748Z,15.82
2018-04-29T03:45:44.831Z,15.85
2018-04-29T03:48:14.678Z,15.88
2018-04-29T03:50:43.725Z,15.91
2018-04-29T03:53:12.090Z,15.93
2018-04-29T03:55:40.575Z,15.95
2018-04-29T03:58:21.175Z,15.97
2018-04-29T04:01:01.495Z,15.97
2018-04-29T04:03:41.999Z,16.01
2018-04-29T04:06:10.391Z,16.04
2018-04-29T04:08:38.871Z,16.05
2018-04-29T04:11:07.229Z,16.08
2018-04-29T04:13:35.901Z,16.12
2018-04-29T04:16:05.357Z,16.17
2018-04-29T04:18:33.712Z,16.19
2018-04-29T04:21:02.230Z,16.21
2018-04-29T04:23:31.070Z,16.24
2018-04-29T04:25:59.784Z,16.27
2018-04-29T04:28:28.542Z,16.28
2018-04-29T04:30:57.401Z,16.30
2018-04-29T04:33:26.169Z,16.32
2018-04-29T04:35:54.913Z,16.34
2018-04-29T04:38:23.594Z,16.37
2018-04-29T04:40:52.473Z,16.38
2018-04-29T04:43:22.437Z,16.41
2018-04-29T04:45:50.807Z,16.46
2018-04-29T04:48:19.664Z,16.49
2018-04-29T04:50:48.367Z,16.54
2018-04-29T04:53:16.934Z,16.59
2018-04-29T04:55:46.080Z,16.65
2018-04-29T04:58:14.651Z,16.70
2018-04-29T05:00:43.456Z,16.76
2018-04-29T05:03:12.364Z,16.80
2018-04-29T05:05:40.747Z,16.86
2018-04-29T05:08:09.115Z,16.91
2018-04-29T05:10:37.495Z,16.97
2018-04-29T05:13:05.891Z,17.02
2018-04-29T05:15:34.253Z,17.08
2018-04-29T05:18:03.071Z,17.13
2018-04-29T05:20:31.805Z,17.19
2018-04-29T05:23:00.533Z,17.24
2018-04-29T05:25:30.173Z,17.31
2018-04-29T05:27:59.614Z,17.39
2018-04-29T05:30:28.268Z,17.48
2018-04-29T05:32:56.704Z,17.57
2018-04-29T05:35:25.936Z,17.66
2018-04-29T05:37:54.810Z,17.72
2018-04-29T05:40:24.442Z,17.78
2018-04-29T05:42:52.819Z,17.82
2018-04-29T05:45:21.854Z,17.86
2018-04-29T05:47:50.352Z,17.87
2018-04-29T05:50:20.197Z,17.88
2018-04-29T05:52:48.886Z,17.89
2018-04-29T05:55:17.627Z,17.87
2018-04-29T05:57:45.987Z,17.86
2018-04-29T06:00:14.465Z,17.85
2018-04-29T06:02:43.059Z,17.83
2018-04-29T06:05:12.172Z,17.80
2018-04-29T06:07:40.526Z,17.77
2018-04-29T06:10:08.935Z,17.74
2018-04-29T06:12:38.484Z,17.72
2018-04-29T06:15:07.494Z,17.72
2018-04-29T06:17:36.641Z,17.82
2018-04-29T06:20:05.354Z,17.86
2018-04-29T06:22:34.506Z,17.82
2018-04-29T06:25:02.882Z,17.79
2018-04-29T06:27:33.637Z,17.74
2018-04-29T06:30:02.038Z,17.71
2018-04-29T06:32:30.399Z,17.71
2018-04-29T06:34:58.772Z,17.72
2018-04-29T06:37:28.824Z,17.74
2018-04-29T06:39:57.187Z,17.76
2018-04-29T06:42:26.004Z,17.82
2018-04-29T06:44:55.161Z,17.89
2018-04-29T06:47:24.493Z,17.91
2018-04-29T06:49:52.884Z,17.94
2018-04-29T06:52:21.480Z,17.97
2018-04-29T06:54:49.878Z,17.97
2018-04-29T06:57:19.420Z,17.97
2018-04-29T06:59:47.810Z,17.99
2018-04-29T07:02:16.301Z,17.99
2018-04-29T07:04:44.707Z,17.98
2018-04-29T07:07:13.602Z,17.97
2018-04-29T07:09:43.007Z,17.97
2018-04-29T07:12:11.433Z,17.97
2018-04-29T07:14:40.110Z,17.98
2018-04-29T07:17:08.987Z,17.99
2018-04-29T07:19:37.708Z,18.00
2018-04-29T07:22:06.145Z,18.03
2018-04-29T07:24:34.542Z,18.05
2018-04-29T07:27:03.913Z,18.14
2018-04-29T07:29:32.949Z,18.24
2018-04-29T07:32:01.482Z,18.32
2018-04-29T07:34:29.905Z,18.41
2018-04-29T07:36:58.650Z,18.48
2018-04-29T07:39:27.011Z,18.55
2018-04-29T07:41:55.627Z,18.59
2018-04-29T07:44:24.010Z,18.64
2018-04-29T07:46:52.598Z,18.73
2018-04-29T07:49:21.081Z,18.83
2018-04-29T07:51:50.088Z,18.96
2018-04-29T07:54:19.637Z,19.10
2018-04-29T07:56:48.303Z,19.16
2018-04-29T07:59:16.655Z,19.14
2018-04-29T08:01:45.388Z,19.14
2018-04-29T08:04:13.870Z,19.10
2018-04-29T08:06:42.271Z,19.09
2018-04-29T08:09:11.006Z,19.18
2018-04-29T08:11:39.455Z,19.23
2018-04-29T08:14:10.271Z,19.26
2018-04-29T08:16:38.631Z,19.22
2018-04-29T08:19:07.210Z,19.12
2018-04-29T08:21:36.391Z,19.00
2018-04-29T08:24:05.587Z,18.95
2018-04-29T08:26:34.238Z,18.88
2018-04-29T08:29:03.145Z,18.85
2018-04-29T08:31:31.500Z,18.81
2018-04-29T08:34:00.523Z,18.74
2018-04-29T08:36:29.191Z,18.70
2018-04-29T08:38:57.664Z,18.70
2018-04-29T08:41:26.693Z,18.75
2018-04-29T08:43:55.287Z,18.83
2018-04-29T08:46:24.345Z,18.94
2018-04-29T08:48:53.010Z,18.95
2018-04-29T08:51:21.836Z,19.01
2018-04-29T08:53:51.052Z,19.10
2018-04-29T08:56:19.511Z,19.17
2018-04-29T08:58:47.907Z,19.28
2018-04-29T09:01:16.513Z,19.34
2018-04-29T09:03:45.416Z,19.45
2018-04-29T09:06:14.195Z,19.58
2018-04-29T09:08:42.645Z,19.64
2018-04-29T09:11:12.027Z,19.70
2018-04-29T09:13:40.431Z,19.77
2018-04-29T09:16:08.807Z,19.84
2018-04-29T09:18:37.677Z,19.88
2018-04-29T09:21:06.512Z,19.89
2018-04-29T09:23:35.599Z,19.93
2018-04-29T09:26:03.962Z,19.99
2018-04-29T09:28:32.321Z,20.01
2018-04-29T09:31:01.102Z,20.12
2018-04-29T09:33:29.602Z,20.24
2018-04-29T09:35:57.977Z,20.26
2018-04-29T09:38:26.590Z,20.31
2018-04-29T09:40:55.625Z,20.42
2018-04-29T09:43:23.974Z,20.52
2018-04-29T09:45:52.327Z,20.50
2018-04-29T09:48:20.871Z,20.47
2018-04-29T09:50:49.241Z,20.52
2018-04-29T09:53:18.105Z,20.58
2018-04-29T09:55:47.014Z,20.58
2018-04-29T09:58:15.704Z,20.69
2018-04-29T10:00:50.577Z,20.80
2018-04-29T10:03:19.945Z,20.89
2018-04-29T10:05:48.797Z,20.92
2018-04-29T10:08:17.485Z,20.90
2018-04-29T10:10:46.297Z,20.90
2018-04-29T10:13:14.969Z,20.94
2018-04-29T10:15:55.610Z,21.07
2018-04-29T10:18:23.968Z,21.14
2018-04-29T10:20:52.337Z,21.09
2018-04-29T10:23:20.827Z,21.11
2018-04-29T10:25:49.322Z,21.06
2018-04-29T10:28:17.776Z,21.03
2018-04-29T10:32:20.558Z,21.01
2018-04-29T10:34:48.985Z,21.15
2018-04-29T10:37:17.406Z,21.23
2018-04-29T10:39:46.162Z,21.27
2018-04-29T10:42:14.776Z,21.29
2018-04-29T10:44:43.405Z,21.37
2018-04-29T10:47:11.850Z,21.47
2018-04-29T10:49:40.686Z,21.59
2018-04-29T10:52:09.076Z,21.78
2018-04-29T10:54:37.895Z,21.99
2018-04-29T10:57:06.416Z,22.05
2018-04-29T10:59:34.800Z,22.23
2018-04-29T11:02:03.176Z,22.28
2018-04-29T11:04:31.834Z,22.38
2018-04-29T11:07:01.053Z,22.56
2018-04-29T11:09:29.498Z,22.75
2018-04-29T11:14:32.379Z,22.86
2018-04-29T11:17:00.764Z,22.80
2018-04-29T11:19:29.840Z,22.83
2018-04-29T11:21:59.029Z,22.88
2018-04-29T11:24:27.552Z,22.94
2018-04-29T11:26:55.902Z,23.05
2018-04-29T11:29:24.792Z,23.03
2018-04-29T11:31:54.507Z,23.14
2018-04-29T11:34:22.884Z,23.18
2018-04-29T11:36:52.321Z,23.23
2018-04-29T11:39:20.771Z,23.32
2018-04-29T11:41:49.803Z,23.45
2018-04-29T11:44:18.155Z,23.55
2018-04-29T11:46:46.695Z,23.24
2018-04-29T11:49:15.394Z,23.06
2018-04-29T11:51:45.060Z,22.91
2018-04-29T11:54:13.414Z,23.15
2018-04-29T11:56:41.881Z,23.39
2018-04-29T11:59:10.776Z,23.41
2018-04-29T12:01:39.208Z,23.12
2018-04-29T12:04:07.565Z,23.20
2018-04-29T12:06:36.417Z,23.32
2018-04-29T12:09:04.791Z,23.44
2018-04-29T12:11:33.500Z,23.62
2018-04-29T12:14:03.080Z,23.88
2018-04-29T12:16:31.492Z,23.88
2018-04-29T12:18:59.879Z,23.95
2018-04-29T12:21:28.238Z,23.92
2018-04-29T12:23:57.341Z,24.06
2018-04-29T12:26:25.706Z,24.04
2018-04-29T12:28:54.622Z,24.05
2018-04-29T12:31:23.005Z,24.06
2018-04-29T12:33:51.376Z,24.17
2018-04-29T12:36:19.737Z,24.33
2018-04-29T12:38:50.027Z,24.23
2018-04-29T12:41:18.488Z,24.39
2018-04-29T12:43:49.731Z,24.46
2018-04-29T12:46:18.995Z,24.35
2018-04-29T12:48:47.377Z,24.59
2018-04-29T12:51:16.119Z,24.65
2018-04-29T12:53:44.477Z,24.71
2018-04-29T12:56:13.440Z,24.99
2018-04-29T12:58:41.981Z,25.23
2018-04-29T13:01:10.708Z,25.20
2018-04-29T13:03:41.760Z,25.38
2018-04-29T13:06:10.496Z,25.63
2018-04-29T13:08:39.274Z,25.69
2018-04-29T13:11:08.653Z,25.71
2018-04-29T13:13:37.545Z,25.80
2018-04-29T13:16:05.912Z,25.88
2018-04-29T13:18:34.698Z,26.18
2018-04-29T13:21:03.423Z,26.32
2018-04-29T13:23:32.193Z,26.51
2018-04-29T13:26:01.725Z,26.46
2018-04-29T13:28:30.962Z,26.09
2018-04-29T13:30:59.413Z,25.81
2018-04-29T13:33:28.101Z,25.92
2018-04-29T13:35:56.978Z,26.11
2018-04-29T13:38:25.524Z,26.17
2018-04-29T13:40:53.880Z,26.31
2018-04-29T13:43:22.259Z,26.48
2018-04-29T13:45:50.956Z,27.05
2018-04-29T13:48:19.495Z,27.94
2018-04-29T13:50:47.842Z,28.27
2018-04-29T13:53:16.563Z,28.44
2018-04-29T13:55:44.925Z,27.98
2018-04-29T13:58:13.275Z,27.68
2018-04-29T14:00:41.798Z,27.24
2018-04-29T14:03:10.479Z,27.22
2018-04-29T14:05:38.861Z,27.24
2018-04-29T14:08:07.659Z,27.35
2018-04-29T14:10:37.249Z,27.49
2018-04-29T14:13:06.271Z,27.71
2018-04-29T14:15:34.853Z,28.33
2018-04-29T14:18:03.569Z,29.04
2018-04-29T14:20:32.302Z,29.06
2018-04-29T14:23:01.352Z,28.60
2018-04-29T14:25:29.763Z,28.43
2018-04-29T14:27:59.286Z,27.83
2018-04-29T14:30:27.908Z,26.32
2018-04-29T14:32:56.500Z,25.13
2018-04-29T14:35:24.878Z,24.12
2018-04-29T14:37:53.259Z,23.32
2018-04-29T14:40:21.932Z,22.83
2018-04-29T14:42:50.290Z,23.36
2018-04-29T14:45:18.777Z,23.92
2018-04-29T14:47:47.186Z,24.42
2018-04-29T14:50:15.598Z,25.21
2018-04-29T14:52:44.267Z,25.69
2018-04-29T14:55:13.147Z,25.49
2018-04-29T14:57:41.500Z,25.83
2018-04-29T15:00:10.642Z,26.35
2018-04-29T15:02:39.675Z,26.55
2018-04-29T15:05:08.048Z,26.55
2018-04-29T15:07:36.409Z,26.21
2018-04-29T15:10:04.768Z,26.26
2018-04-29T15:12:33.138Z,26.44
2018-04-29T15:15:01.805Z,26.52
2018-04-29T15:17:30.341Z,27.16
2018-04-29T15:19:59.001Z,27.30
2018-04-29T15:22:27.413Z,27.30
2018-04-29T15:24:55.862Z,27.41
2018-04-29T15:27:24.283Z,27.48
2018-04-29T15:29:52.646Z,27.77
2018-04-29T15:32:21.305Z,27.93
2018-04-29T15:34:50.531Z,27.93
2018-04-29T15:37:22.597Z,28.20
2018-04-29T15:39:52.117Z,27.72
2018-04-29T15:42:20.472Z,26.95
2018-04-29T15:44:48.851Z,27.01
2018-04-29T15:47:17.215Z,27.60
2018-04-29T15:49:46.164Z,27.96
2018-04-29T15:52:15.629Z,27.78
2018-04-29T15:54:45.341Z,27.06
2018-04-29T15:57:13.870Z,26.93
2018-04-29T15:59:42.234Z,26.63
2018-04-29T16:02:10.620Z,26.42
2018-04-29T16:04:38.973Z,26.50
2018-04-29T16:07:07.647Z,26.35
2018-04-29T16:09:36.005Z,26.33
2018-04-29T16:12:04.361Z,26.24
2018-04-29T16:14:32.749Z,26.56
2018-04-29T16:17:01.135Z,26.80
2018-04-29T16:19:29.574Z,27.01
2018-04-29T16:21:58.011Z,26.77
2018-04-29T16:24:26.401Z,26.38
2018-04-29T16:26:56.577Z,25.82
2018-04-29T16:29:24.983Z,25.18
2018-04-29T16:31:53.627Z,24.55
2018-04-29T16:34:22.257Z,24.27
2018-04-29T16:36:50.629Z,23.87
2018-04-29T16:39:19.005Z,23.04
2018-04-29T16:41:47.389Z,22.38
2018-04-29T16:44:16.368Z,21.91
2018-04-29T16:46:44.744Z,21.40
2018-04-29T16:49:13.107Z,20.91
2018-04-29T16:51:41.471Z,20.50
2018-04-29T16:54:09.880Z,20.20
2018-04-29T16:56:38.240Z,19.92
2018-04-29T16:59:06.608Z,19.53
2018-04-29T17:01:35.536Z,19.13
2018-04-29T17:04:04.283Z,18.86
2018-04-29T17:06:32.656Z,18.65
2018-04-29T17:09:01.016Z,18.50
2018-04-29T17:11:29.384Z,18.49
2018-04-29T17:13:57.776Z,18.39
2018-04-29T17:16:26.159Z,18.35
2018-04-29T17:18:54.575Z,18.24
2018-04-29T17:21:23.079Z,18.00
2018-04-29T17:23:51.445Z,17.78
2018-04-29T17:26:19.828Z,17.59
2018-04-29T17:28:48.195Z,17.44
2018-04-29T17:31:16.571Z,17.30
2018-04-29T17:33:45.889Z,17.24
2018-04-29T17:36:14.256Z,17.16
2018-04-29T17:38:43.017Z,17.04
2018-04-29T17:41:11.418Z,16.89
2018-04-29T17:43:39.795Z,16.70
2018-04-29T17:46:08.492Z,16.54
2018-04-29T17:48:36.869Z,16.45
2018-04-29T17:51:05.258Z,16.40
2018-04-29T17:53:33.704Z,16.27
2018-04-29T17:56:02.118Z,16.16
2018-04-29T17:58:30.433Z,16.10
2018-04-29T18:00:58.805Z,16.02
2018-04-29T18:03:27.509Z,15.95
2018-04-29T18:05:56.538Z,15.90
2018-04-29T18:08:25.384Z,15.85
2018-04-29T18:10:53.883Z,15.77
2018-04-29T18:13:22.661Z,15.68
2018-04-29T18:15:51.389Z,15.51
2018-04-29T18:18:19.763Z,15.35
2018-04-29T18:20:48.269Z,15.20
2018-04-29T18:23:16.865Z,15.16
2018-04-29T18:25:45.236Z,15.11
2018-04-29T18:28:13.620Z,15.00
2018-04-29T18:30:42.049Z,14.98
2018-04-29T18:33:11.420Z,14.94
2018-04-29T18:35:39.852Z,14.88
2018-04-29T18:38:08.296Z,14.85
2018-04-29T18:40:36.672Z,14.76
2018-04-29T18:43:05.244Z,14.70
2018-04-29T18:45:34.002Z,14.63
2018-04-29T18:48:02.411Z,14.56
2018-04-29T18:50:30.965Z,14.43
2018-04-29T18:53:00.278Z,14.38
2018-04-29T18:55:29.060Z,14.39
2018-04-29T18:57:57.423Z,14.41
2018-04-29T19:00:26.477Z,14.43
2018-04-29T19:02:54.865Z,14.36
2018-04-29T19:05:23.553Z,14.30
2018-04-29T19:07:51.942Z,14.23
2018-04-29T19:10:20.333Z,14.19
2018-04-29T19:12:48.726Z,14.12
2018-04-29T19:15:17.157Z,14.06
2018-04-29T19:17:46.027Z,14.04
2018-04-29T19:20:14.451Z,14.05
2018-04-29T19:22:44.225Z,14.05
2018-04-29T19:25:12.674Z,14.05
2018-04-29T19:27:41.398Z,14.03
2018-04-29T19:30:09.778Z,14.04
2018-04-29T19:32:38.915Z,14.02
2018-04-29T19:35:07.324Z,13.98
2018-04-29T19:37:36.040Z,13.93
2018-04-29T19:40:04.422Z,13.87
2018-04-29T19:42:33.060Z,13.85
2018-04-29T19:45:01.462Z,13.84
2018-04-29T19:47:31.112Z,13.81
2018-04-29T19:49:59.720Z,13.78
2018-04-29T19:52:28.599Z,13.73
2018-04-29T19:54:57.104Z,13.71
2018-04-29T19:57:25.877Z,13.69
2018-04-29T19:59:54.248Z,13.69
2018-04-29T20:02:22.608Z,13.65
2018-04-29T20:04:51.150Z,13.60
2018-04-29T20:07:19.651Z,13.53
2018-04-29T20:09:48.178Z,13.39
2018-04-29T20:12:16.876Z,13.27
2018-04-29T20:14:45.416Z,13.21
2018-04-29T20:17:14.050Z,13.16
2018-04-29T20:19:42.535Z,13.10
2018-04-29T20:22:11.002Z,13.06
2018-04-29T20:24:39.438Z,13.02
2018-04-29T20:27:08.065Z,12.96
2018-04-29T20:29:36.492Z,12.89
2018-04-29T20:32:05.061Z,12.83
2018-04-29T20:34:33.536Z,12.80
2018-04-29T20:37:02.643Z,12.71
2018-04-29T20:39:31.116Z,12.64
2018-04-29T20:41:59.558Z,12.63
2018-04-29T20:44:28.003Z,12.61
2018-04-29T20:46:56.569Z,12.55
2018-04-29T20:49:25.161Z,12.52
2018-04-29T20:51:53.579Z,12.50
2018-04-29T20:54:21.945Z,12.48
2018-04-29T20:56:50.682Z,12.46
2018-04-29T20:59:19.800Z,12.42
2018-04-29T21:01:48.197Z,12.40
2018-04-29T21:04:16.629Z,12.39
2018-04-29T21:06:45.149Z,12.36
2018-04-29T21:09:13.528Z,12.33
2018-04-29T21:11:42.207Z,12.30
2018-04-29T21:14:10.939Z,12.31
2018-04-29T21:16:39.550Z,12.32
2018-04-29T21:19:07.911Z,12.29
2018-04-29T21:21:36.649Z,12.26
2018-04-29T21:24:05.220Z,12.22
2018-04-29T21:26:33.845Z,12.18
2018-04-29T21:29:02.491Z,12.14
2018-04-29T21:31:31.283Z,12.12
2018-04-29T21:34:00.188Z,12.05
2018-04-29T21:36:28.775Z,12.00
2018-04-29T21:38:57.469Z,11.95
2018-04-29T21:41:25.898Z,11.93
2018-04-29T21:43:54.401Z,11.94
2018-04-29T21:46:22.856Z,11.97
2018-04-29T21:48:51.796Z,11.96
2018-04-29T21:51:20.193Z,11.90
2018-04-29T21:53:48.630Z,11.86
2018-04-29T21:56:17.402Z,11.82
2018-04-29T21:58:46.139Z,11.79
2018-04-29T22:01:14.653Z,11.73
2018-04-29T22:03:43.040Z,11.68
2018-04-29T22:06:11.414Z,11.66
2018-04-29T22:08:40.567Z,11.69
2018-04-29T22:11:09.824Z,11.72
2018-04-29T22:13:40.462Z,11.71
2018-04-29T22:16:09.620Z,11.68
2018-04-29T22:18:38.346Z,11.62
2018-04-29T22:21:06.852Z,11.61
2018-04-29T22:23:35.207Z,11.63
2018-04-29T22:26:04.137Z,11.65
2018-04-29T22:28:32.780Z,11.64
2018-04-29T22:31:01.310Z,11.64
2018-04-29T22:33:29.675Z,11.64
2018-04-29T22:35:58.483Z,11.63
2018-04-29T22:38:26.860Z,11.63
2018-04-29T22:40:55.378Z,11.57
2018-04-29T22:43:25.354Z,11.48
2018-04-29T22:45:55.356Z,11.40
2018-04-29T22:48:24.509Z,11.30
2018-04-29T22:50:53.276Z,11.22
2018-04-29T22:53:23.303Z,11.14
2018-04-29T22:55:51.664Z,11.12
2018-04-29T22:58:20.488Z,11.11
2018-04-29T23:00:49.118Z,11.10
2018-04-29T23:03:22.347Z,11.11
2018-04-29T23:05:50.732Z,11.09
2018-04-29T23:08:19.149Z,11.08
2018-04-29T23:13:20.209Z,11.04
2018-04-29T23:15:48.642Z,11.04
2018-04-29T23:18:17.871Z,11.06
2018-04-29T23:20:47.379Z,11.06
2018-04-29T23:23:15.883Z,11.04
2018-04-29T23:25:44.425Z,10.96
2018-04-29T23:28:13.478Z,10.90
2018-04-29T23:30:42.982Z,10.88
2018-04-29T23:33:11.488Z,10.86
2018-04-29T23:35:40.433Z,10.83
2018-04-29T23:38:09.795Z,10.75
2018-04-29T23:40:39.228Z,10.66
2018-04-29T23:43:07.613Z,10.57
2018-04-29T23:45:36.097Z,10.53
2018-04-29T23:48:04.893Z,10.52
2018-04-29T23:50:33.260Z,10.49
2018-04-29T23:53:08.836Z,10.41
2018-04-29T23:55:39.108Z,10.39
2018-04-29T23:58:07.636Z,10.39
